Time;durP1;ratioP1;P1;durP2;ratioP2;P2;SDS_P1;SDS_P2;PMS_P1;PMS_P2;Temp;Humidity;BMP_temperature;BMP_pressure;BME280_temperature;BME280_humidity;BME280_pressure;Samples;Min_cycle;Max_cycle;Signal;HPM_P1;HPM_P2
2022/05/21 00:01:30;;;;;;;34.67;12.80;;;10.70;99.90;;;;;;4957488;28;20098;-86
2022/05/21 00:03:56;;;;;;;38.60;14.95;;;10.50;99.90;;;;;;4956538;29;20074;-83
2022/05/21 00:06:22;;;;;;;35.67;14.88;;;10.70;99.90;;;;;;4956765;29;20051;-80
2022/05/21 00:08:48;;;;;;;36.08;14.75;;;10.50;99.90;;;;;;4941732;29;20508;-82
2022/05/21 00:11:13;;;;;;;36.30;12.77;;;10.50;99.90;;;;;;4958929;29;20134;-84
2022/05/21 00:13:39;;;;;;;45.42;15.27;;;10.60;99.90;;;;;;4959160;28;20101;-83
2022/05/21 00:16:05;;;;;;;48.65;16.30;;;10.40;99.90;;;;;;4957039;29;20069;-79
2022/05/21 00:18:32;;;;;;;43.93;15.20;;;10.60;99.90;;;;;;4957435;29;20059;-81
2022/05/21 00:20:58;;;;;;;44.78;15.50;;;10.70;99.90;;;;;;4959375;28;20047;-83
2022/05/21 00:23:30;;;;;;;43.08;15.57;;;10.50;99.90;;;;;;4960512;29;20047;-83
2022/05/21 00:26:08;;;;;;;42.70;15.45;;;10.70;99.90;;;;;;4961064;29;20090;-81
2022/05/21 00:28:36;;;;;;;49.80;16.23;;;10.70;99.90;;;;;;4958075;29;20074;-85
2022/05/21 00:31:02;;;;;;;49.13;16.50;;;10.60;99.90;;;;;;4958080;29;20550;-85
2022/05/21 00:33:29;;;;;;;51.38;17.63;;;10.90;99.90;;;;;;4958725;28;20047;-83
2022/05/21 00:35:54;;;;;;;48.10;17.40;;;10.90;99.90;;;;;;4973349;28;20180;-83
2022/05/21 00:38:21;;;;;;;52.40;17.05;;;10.80;99.90;;;;;;4958259;28;20482;-85
2022/05/21 00:40:48;;;;;;;54.17;18.05;;;11.00;99.90;;;;;;4956619;29;20093;-81
2022/05/21 00:43:49;;;;;;;58.72;17.65;;;10.80;99.90;;;;;;4959242;29;20059;-83
2022/05/21 00:46:21;;;;;;;45.13;16.90;;;10.70;99.90;;;;;;4958605;28;20413;-85
2022/05/21 00:49:08;;;;;;;47.47;17.08;;;10.60;99.90;;;;;;4956638;29;20051;-81
2022/05/21 00:51:38;;;;;;;;;;;10.70;99.90;;;;;;4958374;28;20043;-83
2022/05/21 00:54:05;;;;;;;51.15;18.27;;;10.60;99.90;;;;;;4957935;28;19934;-82
2022/05/21 00:56:36;;;;;;;54.90;19.55;;;10.60;99.90;;;;;;4959758;28;20451;-85
2022/05/21 01:01:52;;;;;;;64.00;21.58;;;10.70;99.90;;;;;;4957568;28;20043;-79
2022/05/21 01:04:18;;;;;;;74.03;21.92;;;10.70;99.90;;;;;;4956823;29;20125;-81
2022/05/21 01:06:45;;;;;;;58.60;21.65;;;10.60;99.90;;;;;;4956136;29;20090;-80
2022/05/21 01:09:10;;;;;;;67.80;22.02;;;10.70;99.90;;;;;;4957849;29;20140;-82
2022/05/21 01:11:37;;;;;;;67.10;21.17;;;10.70;99.90;;;;;;4971616;28;20078;-84
2022/05/21 01:14:05;;;;;;;60.70;19.90;;;10.80;99.90;;;;;;4957611;29;20055;-82
2022/05/21 01:16:32;;;;;;;67.97;22.17;;;10.60;99.90;;;;;;4958798;28;20074;-83
2022/05/21 01:18:57;;;;;;;66.82;22.30;;;10.70;99.90;;;;;;4957231;28;20531;-84
2022/05/21 01:21:23;;;;;;;76.05;24.08;;;10.70;99.90;;;;;;4957255;29;20051;-84
2022/05/21 01:23:49;;;;;;;64.70;22.73;;;10.90;99.90;;;;;;4958297;28;20039;-83
2022/05/21 01:26:18;;;;;;;63.70;20.95;;;10.90;99.90;;;;;;4958947;28;20066;-84
2022/05/21 01:28:44;;;;;;;71.28;24.20;;;11.10;99.90;;;;;;4957527;29;20052;-84
2022/05/21 01:31:10;;;;;;;71.15;23.35;;;11.10;99.90;;;;;;4972945;28;20066;-78
2022/05/21 01:33:44;;;;;;;65.93;24.10;;;11.00;99.90;;;;;;4956136;29;20388;-84
2022/05/21 01:36:10;;;;;;;72.35;24.73;;;11.20;99.90;;;;;;4958019;29;20384;-82
2022/05/21 01:38:37;;;;;;;75.27;26.23;;;11.40;99.90;;;;;;4956106;28;20054;-83
2022/05/21 01:41:04;;;;;;;70.65;26.30;;;11.30;99.90;;;;;;4957313;29;20314;-83
2022/05/21 01:46:16;;;;;;;68.20;24.88;;;11.30;99.90;;;;;;4957045;29;20054;-86
2022/05/21 01:48:42;;;;;;;;;;;11.40;99.90;;;;;;4957472;28;20054;-86
2022/05/21 01:51:08;;;;;;;66.00;25.05;;;11.30;99.90;;;;;;4957712;28;19923;-81
2022/05/21 01:53:36;;;;;;;66.00;25.88;;;11.40;99.90;;;;;;4971599;28;20066;-86
2022/05/21 01:56:02;;;;;;;77.43;28.15;;;11.40;99.90;;;;;;4955418;29;20092;-82
2022/05/21 01:58:28;;;;;;;72.57;28.02;;;11.50;99.90;;;;;;4956080;29;20055;-84
2022/05/21 02:00:56;;;;;;;73.50;26.80;;;11.50;99.90;;;;;;4954697;29;20142;-84
2022/05/21 02:03:22;;;;;;;46.25;17.17;;;11.50;99.90;;;;;;4956390;28;20047;-80
2022/05/21 02:05:49;;;;;;;62.20;24.90;;;11.50;99.90;;;;;;4956710;29;20055;-84
2022/05/21 02:08:17;;;;;;;66.63;25.52;;;11.60;99.90;;;;;;4956204;28;20070;-81
2022/05/21 02:10:44;;;;;;;66.85;25.67;;;11.60;99.90;;;;;;4955455;29;20048;-84
2022/05/21 02:13:19;;;;;;;65.15;26.48;;;11.60;99.90;;;;;;4955557;29;20039;-81
2022/05/21 02:15:45;;;;;;;76.43;29.08;;;11.60;99.90;;;;;;4971918;28;20054;-80
2022/05/21 02:18:11;;;;;;;72.07;28.05;;;11.60;99.90;;;;;;4956329;28;20047;-81
2022/05/21 02:20:38;;;;;;;51.40;20.23;;;11.60;99.90;;;;;;4956413;29;20043;-83
2022/05/21 02:23:04;;;;;;;78.47;29.02;;;11.60;99.90;;;;;;4956327;28;20097;-80
2022/05/21 02:25:30;;;;;;;74.28;28.83;;;11.60;99.90;;;;;;4956148;29;20043;-85
2022/05/21 02:27:56;;;;;;;71.18;28.17;;;11.60;99.90;;;;;;4955038;29;20074;-83
2022/05/21 02:30:22;;;;;;;74.78;28.27;;;11.60;99.90;;;;;;4971284;28;20054;-81
2022/05/21 02:32:47;;;;;;;71.28;28.40;;;11.60;99.90;;;;;;4955467;28;20522;-82
2022/05/21 02:35:14;;;;;;;74.88;27.52;;;11.70;99.90;;;;;;4955698;29;20110;-86
2022/05/21 02:40:25;;;;;;;64.93;27.15;;;11.70;99.90;;;;;;4957616;29;20055;-81
2022/05/21 02:42:51;;;;;;;67.87;26.90;;;11.70;99.90;;;;;;4955521;29;20055;-82
2022/05/21 02:45:22;;;;;;;67.53;25.63;;;11.70;99.90;;;;;;4970823;28;20381;-83
2022/05/21 02:47:49;;;;;;;65.05;26.92;;;11.70;99.90;;;;;;4955015;28;20047;-82
2022/05/21 02:50:17;;;;;;;65.18;26.73;;;11.80;99.90;;;;;;4955506;29;20055;-83
2022/05/21 02:52:42;;;;;;;68.80;27.25;;;11.80;99.90;;;;;;4954140;29;20062;-82
2022/05/21 02:55:10;;;;;;;59.45;23.98;;;11.80;99.90;;;;;;4954960;28;20051;-82
2022/05/21 02:57:37;;;;;;;64.95;23.75;;;11.80;99.90;;;;;;4954134;28;20376;-80
2022/05/21 03:00:06;;;;;;;62.00;24.77;;;11.80;99.90;;;;;;4955093;29;20047;-86
2022/05/21 03:02:32;;;;;;;65.78;25.05;;;11.80;99.90;;;;;;4955363;28;20047;-80
2022/05/21 03:04:57;;;;;;;53.17;18.67;;;11.80;99.90;;;;;;4956150;29;20054;-83
2022/05/21 03:07:23;;;;;;;59.78;23.42;;;11.80;99.90;;;;;;4970541;28;20452;-81
2022/05/21 03:12:34;;;;;;;58.55;21.90;;;11.80;99.90;;;;;;4955593;29;20051;-82
2022/05/21 03:14:59;;;;;;;58.67;21.80;;;11.80;99.90;;;;;;4954594;29;20130;-84
2022/05/21 03:17:26;;;;;;;55.17;21.10;;;11.70;99.90;;;;;;4955477;28;20405;-81
2022/05/21 03:19:52;;;;;;;;;;;11.80;99.90;;;;;;4970784;28;20130;-82
2022/05/21 03:22:18;;;;;;;35.53;14.47;;;11.80;99.90;;;;;;4955344;28;19972;-81
2022/05/21 03:24:44;;;;;;;53.92;20.50;;;11.80;99.90;;;;;;4956257;29;20039;-82
2022/05/21 03:27:10;;;;;;;48.13;19.58;;;11.90;99.90;;;;;;4972685;28;20069;-82
2022/05/21 03:29:37;;;;;;;51.38;19.48;;;11.80;99.90;;;;;;4955985;29;20484;-84
2022/05/21 03:32:04;;;;;;;54.70;19.67;;;11.90;99.90;;;;;;4957752;29;20107;-80
2022/05/21 03:34:30;;;;;;;47.55;17.60;;;11.90;99.90;;;;;;4954431;28;20127;-84
2022/05/21 03:36:56;;;;;;;36.42;15.77;;;11.80;99.90;;;;;;4957677;29;20074;-82
2022/05/21 03:39:22;;;;;;;44.53;14.70;;;11.80;99.90;;;;;;4956894;29;20134;-85
2022/05/21 03:41:47;;;;;;;53.05;17.50;;;11.90;99.90;;;;;;4957221;29;20053;-82
2022/05/21 03:44:13;;;;;;;49.45;17.23;;;12.00;99.90;;;;;;4954554;29;20138;-80
2022/05/21 03:46:39;;;;;;;48.45;16.98;;;11.90;99.90;;;;;;4970059;28;20051;-81
2022/05/21 03:49:05;;;;;;;44.15;17.98;;;12.00;99.90;;;;;;4956615;28;20449;-83
2022/05/21 03:51:31;;;;;;;55.80;17.75;;;12.00;99.90;;;;;;4955105;29;20039;-82
2022/05/21 03:53:57;;;;;;;47.08;17.48;;;12.00;99.90;;;;;;4957639;28;20051;-84
2022/05/21 03:56:23;;;;;;;52.40;17.60;;;12.00;99.90;;;;;;4942699;29;20095;-85
2022/05/21 03:58:48;;;;;;;49.30;17.65;;;12.00;99.90;;;;;;4938422;29;20380;-81
2022/05/21 04:01:15;;;;;;;45.47;15.85;;;12.00;99.90;;;;;;4954592;29;20058;-81
2022/05/21 04:03:41;;;;;;;58.97;17.90;;;12.00;99.90;;;;;;4954413;29;20121;-84
2022/05/21 04:06:07;;;;;;;47.83;16.23;;;12.00;99.90;;;;;;4956233;28;20070;-82
2022/05/21 04:08:33;;;;;;;32.45;14.02;;;12.00;99.90;;;;;;4958968;28;20062;-81
2022/05/21 04:10:59;;;;;;;44.95;14.85;;;12.10;99.90;;;;;;4959998;28;20066;-80
2022/05/21 04:13:26;;;;;;;44.88;14.68;;;12.00;99.90;;;;;;4958102;29;20436;-82
2022/05/21 04:15:52;;;;;;;33.72;11.77;;;12.10;99.90;;;;;;4961028;29;20055;-81
2022/05/21 04:18:19;;;;;;;44.28;15.35;;;12.10;99.90;;;;;;4959707;29;20495;-83
2022/05/21 04:20:45;;;;;;;42.42;15.57;;;12.10;99.90;;;;;;4959754;28;20139;-82
2022/05/21 04:23:12;;;;;;;54.35;16.05;;;12.20;99.90;;;;;;4959818;29;20047;-82
2022/05/21 04:25:38;;;;;;;35.67;13.98;;;12.10;99.90;;;;;;4975707;28;20047;-83
2022/05/21 04:28:04;;;;;;;41.30;14.67;;;12.10;99.90;;;;;;4958432;28;20070;-81
2022/05/21 04:30:31;;;;;;;38.20;14.00;;;12.20;99.90;;;;;;4959340;29;20051;-83
2022/05/21 04:32:58;;;;;;;35.92;13.80;;;12.20;99.90;;;;;;4958355;28;20286;-85
2022/05/21 04:36:17;;;;;;;43.95;13.20;;;12.20;99.90;;;;;;4956720;29;20067;-83
2022/05/21 04:38:12;;;;;;;45.05;12.32;;;12.20;99.90;;;;;;4958579;29;20047;-85
2022/05/21 04:40:38;;;;;;;31.65;12.10;;;12.30;99.90;;;;;;4958956;28;20043;-85
2022/05/21 04:43:04;;;;;;;37.22;11.60;;;12.30;99.90;;;;;;4959132;28;20151;-80
2022/05/21 04:45:30;;;;;;;45.85;12.30;;;12.30;99.90;;;;;;4957527;29;20074;-83
2022/05/21 04:47:55;;;;;;;35.05;10.68;;;12.40;99.90;;;;;;4957062;29;20051;-82
2022/05/21 04:50:21;;;;;;;37.63;9.52;;;12.40;99.90;;;;;;4973654;28;20102;-82
2022/05/21 04:52:47;;;;;;;41.80;10.48;;;12.40;99.90;;;;;;4959255;28;20102;-82
2022/05/21 04:55:12;;;;;;;30.00;8.48;;;12.50;99.90;;;;;;4958184;29;20051;-85
2022/05/21 04:57:38;;;;;;;28.15;7.43;;;12.50;99.90;;;;;;4974066;28;20047;-78
2022/05/21 05:00:06;;;;;;;30.70;7.43;;;12.50;99.90;;;;;;4958765;29;20047;-79
2022/05/21 05:02:32;;;;;;;30.13;6.45;;;12.50;99.90;;;;;;4973947;28;20047;-85
2022/05/21 05:04:58;;;;;;;26.48;6.20;;;12.60;99.90;;;;;;4960376;29;20055;-85
2022/05/21 05:07:24;;;;;;;26.45;5.70;;;12.60;99.90;;;;;;4958859;29;20055;-83
2022/05/21 05:09:50;;;;;;;20.98;5.43;;;12.60;99.90;;;;;;4961136;29;20051;-84
2022/05/21 05:12:16;;;;;;;17.48;3.95;;;12.70;99.90;;;;;;4959442;28;20054;-84
2022/05/21 05:14:42;;;;;;;18.45;4.60;;;12.60;99.90;;;;;;4956815;29;20054;-82
2022/05/21 05:17:11;;;;;;;22.70;4.30;;;12.70;99.90;;;;;;4957302;29;20094;-81
2022/05/21 05:19:37;;;;;;;21.70;3.95;;;12.80;99.90;;;;;;4956812;28;20073;-80
2022/05/21 05:22:04;;;;;;;27.58;4.32;;;12.80;99.90;;;;;;4958113;29;20078;-81
2022/05/21 05:24:29;;;;;;;17.98;3.20;;;12.80;99.90;;;;;;4958352;28;20055;-82
2022/05/21 05:26:55;;;;;;;22.00;3.47;;;12.80;99.90;;;;;;4957442;29;20054;-85
2022/05/21 05:29:21;;;;;;;25.10;3.63;;;12.80;99.90;;;;;;4958051;28;20480;-81
2022/05/21 05:31:47;;;;;;;27.80;3.33;;;12.80;99.90;;;;;;4957644;29;20065;-80
2022/05/21 05:34:12;;;;;;;22.65;3.38;;;12.80;99.90;;;;;;4940149;29;20071;-87
2022/05/21 05:36:38;;;;;;;11.70;2.80;;;12.80;99.90;;;;;;4958459;29;20387;-79
2022/05/21 05:39:04;;;;;;;27.52;3.80;;;12.90;99.90;;;;;;4956143;29;20047;-82
2022/05/21 05:41:30;;;;;;;18.98;2.85;;;12.90;99.90;;;;;;4956163;29;20054;-86
2022/05/21 05:43:57;;;;;;;18.00;2.50;;;13.00;99.90;;;;;;4957096;29;20055;-81
2022/05/21 05:46:23;;;;;;;18.63;3.17;;;13.00;99.90;;;;;;4958169;28;20077;-82
2022/05/21 05:48:49;;;;;;;20.63;2.97;;;13.00;99.90;;;;;;4958071;29;20053;-81
2022/05/21 05:51:19;;;;;;;21.25;3.15;;;13.10;99.90;;;;;;4959448;29;20134;-85
2022/05/21 05:53:46;;;;;;;20.13;3.10;;;13.00;99.90;;;;;;4961245;29;20047;-80
2022/05/21 05:56:12;;;;;;;21.88;3.47;;;13.10;99.90;;;;;;4960677;29;20102;-82
2022/05/21 06:01:25;;;;;;;19.45;2.90;;;13.30;99.90;;;;;;4960858;28;20055;-83
2022/05/21 06:03:52;;;;;;;15.57;2.63;;;13.30;99.90;;;;;;4959129;28;20054;-84
2022/05/21 06:06:18;;;;;;;18.92;2.95;;;13.40;99.90;;;;;;4958559;29;20055;-82
2022/05/21 06:08:44;;;;;;;20.67;3.53;;;13.40;99.90;;;;;;4958672;28;20047;-78
2022/05/21 06:11:11;;;;;;;18.45;3.03;;;13.30;99.90;;;;;;4959100;29;20111;-82
2022/05/21 06:13:37;;;;;;;26.67;3.65;;;13.30;99.90;;;;;;4958593;28;20058;-88
2022/05/21 06:16:03;;;;;;;19.17;2.67;;;13.40;99.90;;;;;;4958714;29;20130;-90
2022/05/21 06:18:29;;;;;;;22.48;2.70;;;13.50;99.90;;;;;;4956234;29;20058;-87
2022/05/21 06:20:59;;;;;;;22.25;3.00;;;13.50;99.90;;;;;;4959048;28;20039;-92
2022/05/21 06:23:25;;;;;;;17.63;2.53;;;13.60;99.90;;;;;;4958861;28;20050;-91
2022/05/21 06:25:51;;;;;;;14.60;2.95;;;13.60;99.90;;;;;;4958529;29;20134;-86
2022/05/21 06:28:17;;;;;;;12.52;3.45;;;13.60;99.90;;;;;;4958319;28;20125;-90
2022/05/21 06:30:45;;;;;;;21.77;4.40;;;13.70;99.90;;;;;;4956081;28;20053;-83
2022/05/21 06:33:11;;;;;;;16.80;3.47;;;13.90;99.90;;;;;;4957355;29;20051;-85
2022/05/21 06:35:37;;;;;;;18.45;2.63;;;14.00;99.90;;;;;;4958643;28;20055;-82
2022/05/21 06:38:04;;;;;;;15.07;2.67;;;14.00;99.90;;;;;;4958220;28;20114;-82
2022/05/21 06:40:29;;;;;;;14.23;2.72;;;14.10;99.90;;;;;;4957855;29;20043;-86
2022/05/21 06:43:00;;;;;;;18.13;2.88;;;14.10;99.90;;;;;;4941247;29;20039;-84
2022/05/21 06:45:28;;;;;;;15.73;3.20;;;14.10;99.90;;;;;;4958168;29;20098;-84
2022/05/21 06:47:54;;;;;;;20.38;3.72;;;14.00;99.90;;;;;;4955704;29;20039;-87
2022/05/21 06:50:19;;;;;;;16.17;3.00;;;14.10;99.90;;;;;;4958029;29;20134;-84
2022/05/21 06:52:45;;;;;;;15.30;2.38;;;14.20;99.90;;;;;;4959161;28;20381;-81
2022/05/21 06:55:11;;;;;;;21.45;3.17;;;14.20;99.90;;;;;;4958471;29;20066;-82
2022/05/21 06:57:37;;;;;;;18.02;3.20;;;14.30;99.90;;;;;;4956943;29;20562;-82
2022/05/21 07:00:05;;;;;;;12.18;2.60;;;14.40;99.90;;;;;;4957115;29;20039;-82
2022/05/21 07:02:30;;;;;;;16.17;2.63;;;14.30;99.90;;;;;;4956945;28;20048;-83
2022/05/21 07:07:44;;;;;;;13.20;2.35;;;14.50;99.90;;;;;;4957765;29;20484;-85
2022/05/21 07:10:22;;;;;;;15.82;2.70;;;14.40;99.90;;;;;;4940997;29;20131;-84
2022/05/21 07:12:48;;;;;;;16.40;2.80;;;14.30;99.90;;;;;;4957250;29;20058;-83
2022/05/21 07:15:16;;;;;;;10.43;2.43;;;14.30;99.90;;;;;;4958227;28;20051;-82
2022/05/21 07:17:42;;;;;;;11.10;2.53;;;14.30;99.90;;;;;;4957954;29;20051;-82
2022/05/21 07:20:11;;;;;;;9.95;2.00;;;14.40;99.90;;;;;;4958614;28;20043;-84
2022/05/21 07:22:42;;;;;;;11.57;2.50;;;14.40;99.90;;;;;;4972152;28;20084;-81
2022/05/21 07:25:08;;;;;;;14.05;2.13;;;14.20;99.90;;;;;;4955360;29;20055;-83
2022/05/21 07:27:34;;;;;;;15.45;2.60;;;14.10;99.90;;;;;;4969950;28;20448;-83
2022/05/21 07:30:00;;;;;;;13.15;2.65;;;14.10;99.90;;;;;;4955881;29;20051;-82
2022/05/21 07:32:27;;;;;;;11.32;2.38;;;14.30;99.90;;;;;;4955466;28;20059;-82
2022/05/21 07:35:05;;;;;;;12.50;2.60;;;14.40;99.90;;;;;;4955634;28;20091;-80
2022/05/21 07:37:31;;;;;;;12.10;2.33;;;14.50;99.90;;;;;;4955550;29;20394;-82
2022/05/21 07:39:57;;;;;;;13.97;2.57;;;14.60;99.90;;;;;;4954344;29;20051;-85
2022/05/21 07:42:23;;;;;;;9.32;2.55;;;14.70;99.90;;;;;;4953931;28;20118;-82
2022/05/21 07:44:49;;;;;;;10.32;2.92;;;14.80;99.90;;;;;;4958197;29;20365;-81
2022/05/21 07:47:15;;;;;;;17.25;2.78;;;14.80;99.90;;;;;;4957712;28;20101;-81
2022/05/21 07:49:41;;;;;;;12.55;2.55;;;15.00;99.90;;;;;;4957916;28;20047;-81
2022/05/21 07:52:08;;;;;;;13.17;2.73;;;15.10;99.90;;;;;;4957942;29;20043;-80
2022/05/21 07:54:34;;;;;;;10.65;2.05;;;15.10;99.90;;;;;;4956659;29;20087;-81
2022/05/21 07:57:01;;;;;;;15.73;2.85;;;15.10;99.90;;;;;;4957828;29;20138;-80
2022/05/21 07:59:27;;;;;;;14.65;2.33;;;15.10;99.90;;;;;;4957182;29;20100;-82
2022/05/21 08:01:54;;;;;;;15.63;2.42;;;15.00;99.90;;;;;;4956837;29;20047;-83
2022/05/21 08:04:19;;;;;;;16.63;2.75;;;15.00;99.90;;;;;;4957765;29;20057;-78
2022/05/21 08:06:45;;;;;;;10.88;2.45;;;15.10;99.90;;;;;;4957538;29;20047;-83
2022/05/21 08:09:11;;;;;;;14.82;3.35;;;15.00;99.90;;;;;;4958673;29;20083;-82
2022/05/21 08:11:37;;;;;;;15.13;1.70;;;15.00;99.90;;;;;;4958128;29;20114;-81
2022/05/21 08:14:03;;;;;;;13.43;1.90;;;14.80;99.90;;;;;;4957904;29;20051;-82
2022/05/21 08:16:29;;;;;;;15.67;2.40;;;14.70;99.90;;;;;;4957429;29;20099;-81
2022/05/21 08:18:56;;;;;;;14.82;2.40;;;14.50;99.90;;;;;;4957057;29;20319;-83
2022/05/21 08:21:22;;;;;;;9.52;2.10;;;14.50;99.90;;;;;;4957426;28;20191;-81
2022/05/21 08:29:16;;;;;;;8.27;1.40;;;15.30;99.90;;;;;;4958080;28;20073;-79
2022/05/21 08:31:42;;;;;;;12.38;1.20;;;15.60;99.90;;;;;;4972386;28;20113;-82
2022/05/21 08:34:08;;;;;;;10.40;1.60;;;15.80;99.90;;;;;;4956720;29;20149;-80
2022/05/21 08:36:34;;;;;;;8.13;1.50;;;15.70;99.90;;;;;;4957705;28;20047;-83
2022/05/21 08:39:00;;;;;;;13.50;1.33;;;15.90;99.90;;;;;;4957065;28;20362;-81
2022/05/21 08:41:30;;;;;;;12.05;1.60;;;16.10;99.90;;;;;;4955804;29;20043;-82
2022/05/21 08:44:03;;;;;;;8.93;1.30;;;16.20;99.90;;;;;;4957890;29;20055;-82
2022/05/21 08:46:36;;;;;;;15.65;1.42;;;16.30;99.90;;;;;;4957272;29;20388;-81
2022/05/21 08:49:04;;;;;;;14.77;1.50;;;;;;;;;;4958343;29;20105;-83
2022/05/21 08:51:49;;;;;;;7.82;1.05;;;16.50;99.90;;;;;;4957446;29;20043;-81
2022/05/21 08:54:21;;;;;;;11.63;1.02;;;16.70;99.90;;;;;;4956434;28;20058;-80
2022/05/21 08:56:48;;;;;;;10.75;1.35;;;16.90;99.90;;;;;;4939854;29;20086;-81
2022/05/21 08:59:16;;;;;;;9.55;1.80;;;17.00;99.90;;;;;;4955284;29;20051;-80
2022/05/21 09:01:44;;;;;;;8.77;0.80;;;17.00;99.90;;;;;;4924878;29;20341;-82
2022/05/21 09:04:12;;;;;;;9.82;1.00;;;16.10;99.90;;;;;;4956274;29;20133;-84
2022/05/21 09:06:50;;;;;;;12.77;1.83;;;16.40;99.90;;;;;;4956786;29;20051;-83
2022/05/21 09:09:35;;;;;;;9.50;1.45;;;16.20;99.90;;;;;;4957982;28;20071;-81
2022/05/21 09:12:18;;;;;;;10.18;1.20;;;16.40;99.90;;;;;;4957640;29;20039;-80
2022/05/21 09:14:47;;;;;;;7.80;1.00;;;16.50;99.90;;;;;;4958399;28;20051;-81
2022/05/21 09:17:24;;;;;;;9.15;0.95;;;16.70;99.90;;;;;;4941651;29;20487;-80
2022/05/21 09:20:02;;;;;;;13.30;1.23;;;16.90;99.90;;;;;;4959497;29;20433;-81
2022/05/21 09:22:28;;;;;;;8.55;1.13;;;16.80;99.90;;;;;;4957644;28;20154;-80
2022/05/21 09:24:59;;;;;;;10.00;1.67;;;16.60;99.90;;;;;;4956253;29;20185;-76
2022/05/21 09:27:32;;;;;;;11.07;1.50;;;16.50;99.90;;;;;;4956474;28;20058;-78
2022/05/21 09:30:15;;;;;;;9.82;1.27;;;16.50;99.90;;;;;;4955976;28;20389;-80
2022/05/21 09:32:44;;;;;;;12.07;1.30;;;16.30;99.90;;;;;;4955725;28;20043;-80
2022/05/21 09:35:17;;;;;;;6.05;1.00;;;16.00;99.90;;;;;;4955840;29;20051;-83
2022/05/21 09:37:44;;;;;;;8.05;1.58;;;16.10;99.90;;;;;;4955999;28;20062;-79
2022/05/21 09:40:24;;;;;;;;;;;16.10;99.90;;;;;;4940489;29;20217;-85
2022/05/21 09:45:36;;;;;;;10.20;1.50;;;16.30;99.90;;;;;;4955906;29;20047;-81
2022/05/21 09:48:05;;;;;;;9.27;1.23;;;16.10;99.90;;;;;;4956267;29;20369;-79
2022/05/21 09:50:53;;;;;;;9.95;1.40;;;16.70;99.90;;;;;;4956003;28;20043;-79
2022/05/21 09:53:39;;;;;;;8.75;1.75;;;16.90;99.90;;;;;;4954386;29;20483;-82
2022/05/21 09:56:24;;;;;;;9.68;1.65;;;17.00;99.90;;;;;;4955853;28;20089;-81
2022/05/21 09:58:54;;;;;;;9.45;1.38;;;17.10;99.90;;;;;;4955334;28;20205;-79
2022/05/21 10:01:36;;;;;;;10.60;1.17;;;17.00;99.90;;;;;;4955455;28;20055;-81
2022/05/21 10:04:21;;;;;;;7.05;1.20;;;17.40;99.90;;;;;;4954112;29;20392;-79
2022/05/21 10:07:03;;;;;;;10.85;1.60;;;17.30;99.90;;;;;;4954607;29;20372;-82
2022/05/21 10:12:33;;;;;;;8.50;1.20;;;17.00;99.90;;;;;;4954304;29;20448;-79
2022/05/21 10:15:19;;;;;;;11.10;1.50;;;16.60;99.90;;;;;;4955130;28;20051;-77
2022/05/21 10:18:11;;;;;;;9.07;1.30;;;17.10;99.90;;;;;;4955857;28;20162;-81
2022/05/21 10:20:46;;;;;;;5.28;1.00;;;17.30;99.90;;;;;;4954940;28;20094;-78
2022/05/21 10:23:17;;;;;;;9.55;1.10;;;17.20;99.90;;;;;;4955163;29;20050;-81
2022/05/21 10:26:14;;;;;;;9.45;1.05;;;17.30;99.90;;;;;;4953475;28;20137;-79
2022/05/21 10:29:13;;;;;;;9.82;1.48;;;17.50;99.90;;;;;;4937676;29;20055;-81
2022/05/21 10:32:05;;;;;;;7.50;0.98;;;17.50;99.90;;;;;;4954751;29;20047;-78
2022/05/21 10:34:56;;;;;;;10.73;1.63;;;17.50;99.90;;;;;;4953714;29;20051;-79
2022/05/21 10:37:30;;;;;;;7.38;1.00;;;17.40;99.90;;;;;;4954772;29;20086;-76
2022/05/21 10:40:09;;;;;;;8.88;1.15;;;17.70;99.90;;;;;;4969879;28;20048;-80
2022/05/21 10:42:57;;;;;;;10.32;1.40;;;17.60;99.90;;;;;;4955016;28;20047;-79
2022/05/21 10:45:55;;;;;;;9.27;1.38;;;17.80;99.90;;;;;;4954468;28;20157;-79
2022/05/21 10:48:39;;;;;;;7.28;1.00;;;17.90;99.90;;;;;;4954882;29;20078;-76
2022/05/21 10:51:21;;;;;;;5.43;0.77;;;17.90;99.90;;;;;;4955379;29;20058;-82
2022/05/21 10:54:07;;;;;;;9.23;0.82;;;17.70;99.90;;;;;;4954422;28;20506;-81
2022/05/21 10:57:24;;;;;;;9.65;1.10;;;17.70;99.90;;;;;;4954303;28;20126;-77
2022/05/21 11:00:08;;;;;;;5.95;1.08;;;17.40;99.90;;;;;;4937278;29;20102;-78
2022/05/21 11:03:03;;;;;;;7.53;0.90;;;17.50;99.90;;;;;;4953688;29;20502;-79
2022/05/21 11:06:03;;;;;;;7.25;1.08;;;17.40;99.90;;;;;;4954940;28;20051;-77
2022/05/21 11:08:54;;;;;;;7.63;0.82;;;17.80;99.90;;;;;;4953151;29;20055;-78
2022/05/21 11:11:50;;;;;;;6.07;0.65;;;18.00;99.90;;;;;;4968801;28;20051;-77
2022/05/21 11:14:43;;;;;;;5.78;0.60;;;18.00;99.90;;;;;;4953682;28;20051;-79
2022/05/21 11:17:30;;;;;;;8.32;0.68;;;17.90;99.90;;;;;;4936463;29;20107;-78
2022/05/21 11:20:34;;;;;;;9.55;0.90;;;17.90;99.90;;;;;;4957907;29;20101;-77
2022/05/21 11:23:07;;;;;;;5.60;0.77;;;18.20;99.90;;;;;;4946441;28;20098;-77
2022/05/21 11:25:43;;;;;;;8.50;1.08;;;18.20;99.90;;;;;;4957974;29;20392;-80
2022/05/21 11:28:34;;;;;;;5.32;0.80;;;18.20;99.90;;;;;;4958358;28;20365;-78
2022/05/21 11:31:07;;;;;;;8.98;1.05;;;18.30;99.90;;;;;;4957552;29;20100;-78
2022/05/21 11:39:20;;;;;;;5.85;0.60;;;18.30;99.90;;;;;;4958697;28;20128;-80
2022/05/21 11:42:01;;;;;;;8.02;0.75;;;18.20;99.90;;;;;;4956750;29;20066;-80
2022/05/21 11:44:56;;;;;;;6.32;0.70;;;18.20;99.90;;;;;;4957360;29;20055;-77
2022/05/21 11:47:21;;;;;;;4.45;0.50;;;17.60;99.90;;;;;;4955974;28;20054;-79
2022/05/21 11:50:31;;;;;;;5.60;0.70;;;17.80;99.90;;;;;;4972245;28;20044;-77
2022/05/21 11:53:08;;;;;;;9.38;0.98;;;17.40;99.90;;;;;;4957745;29;20161;-78
2022/05/21 11:56:13;;;;;;;3.75;0.47;;;17.60;99.90;;;;;;4972409;28;20047;-76
2022/05/21 11:58:58;;;;;;;9.40;0.90;;;17.60;99.90;;;;;;4939836;29;20452;-77
2022/05/21 12:01:38;;;;;;;9.18;1.00;;;17.80;99.90;;;;;;4957381;29;20184;-78
2022/05/21 12:04:06;;;;;;;6.85;0.70;;;17.90;99.90;;;;;;4955658;29;20103;-78
2022/05/21 12:06:40;;;;;;;9.95;1.00;;;18.00;99.90;;;;;;4957463;29;20048;-79
2022/05/21 12:09:31;;;;;;;10.65;1.08;;;18.10;99.90;;;;;;4972435;28;20043;-77
2022/05/21 12:12:22;;;;;;;10.55;1.08;;;18.20;99.90;;;;;;4957001;28;20043;-79
2022/05/21 12:14:56;;;;;;;12.05;1.00;;;18.20;99.90;;;;;;4957008;28;20436;-78
2022/05/21 12:17:44;;;;;;;6.68;0.98;;;17.90;99.90;;;;;;4956897;29;20063;-77
2022/05/21 12:20:13;;;;;;;8.93;0.80;;;18.20;99.90;;;;;;4955746;29;20408;-78
2022/05/21 12:22:45;;;;;;;7.38;0.85;;;18.20;99.90;;;;;;4956819;28;20107;-79
2022/05/21 12:25:43;;;;;;;12.50;1.08;;;18.20;99.90;;;;;;4957071;29;20123;-79
2022/05/21 12:28:10;;;;;;;11.48;0.93;;;18.40;99.90;;;;;;4955678;28;20066;-81
2022/05/21 12:30:36;;;;;;;;;;;18.60;99.90;;;;;;4956990;29;20051;-77
2022/05/21 12:33:02;;;;;;;7.27;0.70;;;18.90;99.90;;;;;;4955318;29;19993;-78
2022/05/21 12:35:38;;;;;;;13.27;1.27;;;18.90;99.40;;;;;;4955395;29;20046;-76
2022/05/21 12:38:30;;;;;;;14.27;0.82;;;18.90;99.90;;;;;;4956596;29;20282;-78
2022/05/21 12:41:13;;;;;;;7.03;0.90;;;19.00;99.90;;;;;;4955634;29;20051;-77
2022/05/21 12:43:48;;;;;;;7.50;0.80;;;19.00;98.10;;;;;;4956626;28;20547;-78
2022/05/21 12:46:26;;;;;;;7.82;0.90;;;18.50;98.70;;;;;;4955355;29;20055;-77
2022/05/21 12:48:57;;;;;;;5.82;0.70;;;18.70;99.10;;;;;;4956513;28;20055;-77
2022/05/21 12:51:30;;;;;;;6.57;0.90;;;18.70;99.40;;;;;;4956252;28;20050;-75
2022/05/21 12:53:59;;;;;;;7.93;0.82;;;18.60;99.00;;;;;;4955971;29;20055;-78
2022/05/21 12:56:33;;;;;;;10.23;0.90;;;18.80;99.20;;;;;;4954993;28;20051;-77
2022/05/21 12:59:23;;;;;;;6.72;0.70;;;18.50;94.20;;;;;;4957110;29;20126;-78
2022/05/21 13:01:56;;;;;;;7.70;0.70;;;18.40;97.40;;;;;;4954967;29;20051;-83
2022/05/21 13:04:27;;;;;;;7.35;0.98;;;18.60;98.00;;;;;;4955992;29;20047;-78
2022/05/21 13:07:00;;;;;;;7.95;1.30;;;18.60;98.40;;;;;;4956098;28;20047;-81
2022/05/21 13:09:26;;;;;;;8.23;0.93;;;18.60;97.40;;;;;;4956102;28;20087;-75
2022/05/21 13:11:52;;;;;;;9.53;0.80;;;18.50;98.00;;;;;;4956283;29;20082;-78
2022/05/21 13:14:45;;;;;;;6.13;0.90;;;18.20;99.10;;;;;;4955964;28;20049;-81
2022/05/21 13:17:35;;;;;;;8.25;1.10;;;18.30;99.50;;;;;;4968325;28;20055;-76
2022/05/21 13:20:15;;;;;;;11.38;2.17;;;18.30;99.80;;;;;;4952899;29;20062;-78
2022/05/21 13:23:22;;;;;;;7.88;1.17;;;18.30;99.90;;;;;;4954630;28;20138;-75
2022/05/21 13:25:53;;;;;;;8.23;1.00;;;18.20;99.90;;;;;;4956187;28;20364;-78
2022/05/21 13:28:25;;;;;;;8.02;0.90;;;18.50;98.60;;;;;;4955755;29;20118;-77
2022/05/21 13:30:51;;;;;;;7.88;1.02;;;18.50;98.70;;;;;;4955700;28;20054;-76
2022/05/21 13:33:45;;;;;;;9.32;1.63;;;18.70;97.70;;;;;;4954007;29;20058;-78